sensor_id;sensor_type;location;lat;lon;timestamp;temperature;humidity
64012;DHT22;50211;52.768;12.124;2023-04-01T00:02:17;8.80;99.90
64012;DHT22;50211;52.768;12.124;2023-04-01T00:04:42;8.80;99.90
64012;DHT22;50211;52.768;12.124;2023-04-01T00:07:08;8.80;99.90
64012;DHT22;50211;52.768;12.124;2023-04-01T00:09:34;8.80;99.90
64012;DHT22;50211;52.768;12.124;2023-04-01T00:12:00;8.80;99.90
64012;DHT22;50211;52.768;12.124;2023-04-01T00:14:26;8.90;99.90
64012;DHT22;50211;52.768;12.124;2023-04-01T00:16:52;8.80;99.90
64012;DHT22;50211;52.768;12.124;2023-04-01T00:19:18;8.80;99.90
64012;DHT22;50211;52.768;12.124;2023-04-01T00:21:43;8.80;99.90
64012;DHT22;50211;52.768;12.124;2023-04-01T00:24:09;8.80;99.90
64012;DHT22;50211;52.768;12.124;2023-04-01T00:26:35;8.80;99.90
64012;DHT22;50211;52.768;12.124;2023-04-01T00:29:00;8.80;99.90
64012;DHT22;50211;52.768;12.124;2023-04-01T00:31:26;8.90;99.90
64012;DHT22;50211;52.768;12.124;2023-04-01T00:33:52;8.90;99.90
64012;DHT22;50211;52.768;12.124;2023-04-01T00:36:20;8.90;99.90
64012;DHT22;50211;52.768;12.124;2023-04-01T00:38:47;8.90;99.90
64012;DHT22;50211;52.768;12.124;2023-04-01T00:41:13;8.90;99.90
64012;DHT22;50211;52.768;12.124;2023-04-01T00:43:41;9.00;99.90
64012;DHT22;50211;52.768;12.124;2023-04-01T00:46:07;9.00;99.90
64012;DHT22;50211;52.768;12.124;2023-04-01T00:48:53;8.90;99.90
64012;DHT22;50211;52.768;12.124;2023-04-01T00:51:23;8.90;99.90
64012;DHT22;50211;52.768;12.124;2023-04-01T00:53:53;9.00;99.90
64012;DHT22;50211;52.768;12.124;2023-04-01T00:56:22;8.90;99.90
64012;DHT22;50211;52.768;12.124;2023-04-01T00:58:58;8.90;99.90
64012;DHT22;50211;52.768;12.124;2023-04-01T01:01:25;8.90;99.90
64012;DHT22;50211;52.768;12.124;2023-04-01T01:03:51;8.90;99.90
64012;DHT22;50211;52.768;12.124;2023-04-01T01:09:25;8.90;99.90
64012;DHT22;50211;52.768;12.124;2023-04-01T01:12:11;8.90;99.90
64012;DHT22;50211;52.768;12.124;2023-04-01T01:17:20;8.90;99.90
64012;DHT22;50211;52.768;12.124;2023-04-01T01:20:14;8.90;99.90
64012;DHT22;50211;52.768;12.124;2023-04-01T01:23:06;8.90;99.90
64012;DHT22;50211;52.768;12.124;2023-04-01T01:26:04;8.90;99.90
64012;DHT22;50211;52.768;12.124;2023-04-01T01:31:24;8.90;99.90
64012;DHT22;50211;52.768;12.124;2023-04-01T01:36:55;8.90;99.90
64012;DHT22;50211;52.768;12.124;2023-04-01T01:39:26;8.90;99.90
64012;DHT22;50211;52.768;12.124;2023-04-01T01:41:56;8.80;99.90
64012;DHT22;50211;52.768;12.124;2023-04-01T01:44:23;8.80;99.90
64012;DHT22;50211;52.768;12.124;2023-04-01T01:46:49;8.80;99.90
64012;DHT22;50211;52.768;12.124;2023-04-01T01:49:17;8.80;99.90
64012;DHT22;50211;52.768;12.124;2023-04-01T01:51:43;8.80;99.90
64012;DHT22;50211;52.768;12.124;2023-04-01T01:54:13;8.80;99.90
64012;DHT22;50211;52.768;12.124;2023-04-01T01:56:38;8.90;99.90
64012;DHT22;50211;52.768;12.124;2023-04-01T01:59:08;8.90;99.90
64012;DHT22;50211;52.768;12.124;2023-04-01T02:01:37;8.90;99.90
64012;DHT22;50211;52.768;12.124;2023-04-01T02:04:04;8.80;99.90
64012;DHT22;50211;52.768;12.124;2023-04-01T02:06:32;8.80;99.90
64012;DHT22;50211;52.768;12.124;2023-04-01T02:09:05;8.90;99.90
64012;DHT22;50211;52.768;12.124;2023-04-01T02:11:37;8.80;99.90
64012;DHT22;50211;52.768;12.124;2023-04-01T02:14:16;8.90;99.90
64012;DHT22;50211;52.768;12.124;2023-04-01T02:16:49;8.90;99.90
64012;DHT22;50211;52.768;12.124;2023-04-01T02:19:17;8.90;99.90
64012;DHT22;50211;52.768;12.124;2023-04-01T02:21:50;8.90;99.90
64012;DHT22;50211;52.768;12.124;2023-04-01T02:24:17;8.90;99.90
64012;DHT22;50211;52.768;12.124;2023-04-01T02:26:46;8.90;99.90
64012;DHT22;50211;52.768;12.124;2023-04-01T02:29:12;8.90;99.90
64012;DHT22;50211;52.768;12.124;2023-04-01T02:31:38;8.90;99.90
64012;DHT22;50211;52.768;12.124;2023-04-01T02:34:05;8.90;99.90
64012;DHT22;50211;52.768;12.124;2023-04-01T02:36:31;8.90;99.90
64012;DHT22;50211;52.768;12.124;2023-04-01T02:38:58;8.80;99.90
64012;DHT22;50211;52.768;12.124;2023-04-01T02:41:28;8.80;99.90
64012;DHT22;50211;52.768;12.124;2023-04-01T02:43:53;8.80;99.90
64012;DHT22;50211;52.768;12.124;2023-04-01T02:46:19;8.80;99.90
64012;DHT22;50211;52.768;12.124;2023-04-01T02:48:45;8.80;99.90
64012;DHT22;50211;52.768;12.124;2023-04-01T02:51:10;8.80;99.90
64012;DHT22;50211;52.768;12.124;2023-04-01T02:53:36;8.80;99.90
64012;DHT22;50211;52.768;12.124;2023-04-01T02:56:01;8.80;99.90
64012;DHT22;50211;52.768;12.124;2023-04-01T02:58:26;8.90;99.90
64012;DHT22;50211;52.768;12.124;2023-04-01T03:00:52;8.90;99.90
64012;DHT22;50211;52.768;12.124;2023-04-01T03:03:17;8.90;99.90
64012;DHT22;50211;52.768;12.124;2023-04-01T03:05:43;8.90;99.90
64012;DHT22;50211;52.768;12.124;2023-04-01T03:08:08;8.90;99.90
64012;DHT22;50211;52.768;12.124;2023-04-01T03:10:34;8.90;99.90
64012;DHT22;50211;52.768;12.124;2023-04-01T03:12:59;8.90;99.90
64012;DHT22;50211;52.768;12.124;2023-04-01T03:15:25;8.90;99.90
64012;DHT22;50211;52.768;12.124;2023-04-01T03:17:50;8.90;99.90
64012;DHT22;50211;52.768;12.124;2023-04-01T03:20:16;8.90;99.90
64012;DHT22;50211;52.768;12.124;2023-04-01T03:22:42;9.00;99.90
64012;DHT22;50211;52.768;12.124;2023-04-01T03:25:08;8.90;99.90
64012;DHT22;50211;52.768;12.124;2023-04-01T03:27:34;8.90;99.90
64012;DHT22;50211;52.768;12.124;2023-04-01T03:30:02;8.90;99.90
64012;DHT22;50211;52.768;12.124;2023-04-01T03:32:28;8.90;99.90
64012;DHT22;50211;52.768;12.124;2023-04-01T03:34:53;8.90;99.90
64012;DHT22;50211;52.768;12.124;2023-04-01T03:37:19;8.90;99.90
64012;DHT22;50211;52.768;12.124;2023-04-01T03:39:45;8.90;99.90
64012;DHT22;50211;52.768;12.124;2023-04-01T03:42:11;8.80;99.90
64012;DHT22;50211;52.768;12.124;2023-04-01T03:44:36;8.90;99.90
64012;DHT22;50211;52.768;12.124;2023-04-01T03:47:02;8.90;99.90
64012;DHT22;50211;52.768;12.124;2023-04-01T03:49:28;8.80;99.90
64012;DHT22;50211;52.768;12.124;2023-04-01T03:51:53;8.80;99.90
64012;DHT22;50211;52.768;12.124;2023-04-01T03:54:19;8.90;99.90
64012;DHT22;50211;52.768;12.124;2023-04-01T03:56:45;8.90;99.90
64012;DHT22;50211;52.768;12.124;2023-04-01T03:59:11;8.90;99.90
64012;DHT22;50211;52.768;12.124;2023-04-01T04:01:36;8.90;99.90
64012;DHT22;50211;52.768;12.124;2023-04-01T04:04:02;8.90;99.90
64012;DHT22;50211;52.768;12.124;2023-04-01T04:06:28;8.90;99.90
64012;DHT22;50211;52.768;12.124;2023-04-01T04:08:54;8.90;99.90
64012;DHT22;50211;52.768;12.124;2023-04-01T04:11:20;8.90;99.90
64012;DHT22;50211;52.768;12.124;2023-04-01T04:13:47;8.90;99.90
64012;DHT22;50211;52.768;12.124;2023-04-01T04:16:16;8.90;99.90
64012;DHT22;50211;52.768;12.124;2023-04-01T04:18:42;8.90;99.90
64012;DHT22;50211;52.768;12.124;2023-04-01T04:21:12;8.90;99.90
64012;DHT22;50211;52.768;12.124;2023-04-01T04:23:37;8.90;99.90
64012;DHT22;50211;52.768;12.124;2023-04-01T04:26:06;9.00;99.90
64012;DHT22;50211;52.768;12.124;2023-04-01T04:28:32;9.00;99.90
64012;DHT22;50211;52.768;12.124;2023-04-01T04:30:58;9.00;99.90
64012;DHT22;50211;52.768;12.124;2023-04-01T04:33:25;9.00;99.90
64012;DHT22;50211;52.768;12.124;2023-04-01T04:35:51;8.90;99.90
64012;DHT22;50211;52.768;12.124;2023-04-01T04:38:17;8.90;99.90
64012;DHT22;50211;52.768;12.124;2023-04-01T04:40:43;8.80;99.90
64012;DHT22;50211;52.768;12.124;2023-04-01T04:43:13;8.80;99.90
64012;DHT22;50211;52.768;12.124;2023-04-01T04:45:39;8.80;99.90
64012;DHT22;50211;52.768;12.124;2023-04-01T04:48:05;8.70;99.90
64012;DHT22;50211;52.768;12.124;2023-04-01T04:50:30;8.70;99.90
64012;DHT22;50211;52.768;12.124;2023-04-01T04:52:56;8.70;99.90
64012;DHT22;50211;52.768;12.124;2023-04-01T04:55:21;8.70;99.90
64012;DHT22;50211;52.768;12.124;2023-04-01T04:57:47;8.70;99.90
64012;DHT22;50211;52.768;12.124;2023-04-01T05:00:13;8.70;99.90
64012;DHT22;50211;52.768;12.124;2023-04-01T05:02:38;8.70;99.90
64012;DHT22;50211;52.768;12.124;2023-04-01T05:05:04;8.70;99.90
64012;DHT22;50211;52.768;12.124;2023-04-01T05:07:30;8.70;99.90
64012;DHT22;50211;52.768;12.124;2023-04-01T05:09:55;8.60;99.90
64012;DHT22;50211;52.768;12.124;2023-04-01T05:12:21;8.70;99.90
64012;DHT22;50211;52.768;12.124;2023-04-01T05:14:47;8.70;99.90
64012;DHT22;50211;52.768;12.124;2023-04-01T05:17:12;8.70;99.90
64012;DHT22;50211;52.768;12.124;2023-04-01T05:19:38;8.70;99.90
64012;DHT22;50211;52.768;12.124;2023-04-01T05:22:05;8.70;99.90
64012;DHT22;50211;52.768;12.124;2023-04-01T05:24:31;8.70;99.90
64012;DHT22;50211;52.768;12.124;2023-04-01T05:26:58;8.60;99.90
64012;DHT22;50211;52.768;12.124;2023-04-01T05:29:24;8.70;99.90
64012;DHT22;50211;52.768;12.124;2023-04-01T05:31:50;8.70;99.90
64012;DHT22;50211;52.768;12.124;2023-04-01T05:34:15;8.70;99.90
64012;DHT22;50211;52.768;12.124;2023-04-01T05:36:42;8.80;99.90
64012;DHT22;50211;52.768;12.124;2023-04-01T05:39:08;8.80;99.90
64012;DHT22;50211;52.768;12.124;2023-04-01T05:41:37;8.80;99.90
64012;DHT22;50211;52.768;12.124;2023-04-01T05:44:03;8.80;99.90
64012;DHT22;50211;52.768;12.124;2023-04-01T05:46:29;8.90;99.90
64012;DHT22;50211;52.768;12.124;2023-04-01T05:48:54;8.90;99.90
64012;DHT22;50211;52.768;12.124;2023-04-01T05:51:20;8.90;99.90
64012;DHT22;50211;52.768;12.124;2023-04-01T05:53:45;8.90;99.90
64012;DHT22;50211;52.768;12.124;2023-04-01T05:56:11;8.90;99.90
64012;DHT22;50211;52.768;12.124;2023-04-01T05:58:37;8.90;99.90
64012;DHT22;50211;52.768;12.124;2023-04-01T06:01:05;8.90;99.90
64012;DHT22;50211;52.768;12.124;2023-04-01T06:03:31;8.90;99.90
64012;DHT22;50211;52.768;12.124;2023-04-01T06:05:56;8.90;99.90
64012;DHT22;50211;52.768;12.124;2023-04-01T06:08:22;9.00;99.90
64012;DHT22;50211;52.768;12.124;2023-04-01T06:19:21;9.00;99.90
64012;DHT22;50211;52.768;12.124;2023-04-01T06:22:00;9.10;99.90
64012;DHT22;50211;52.768;12.124;2023-04-01T06:24:47;9.10;99.90
64012;DHT22;50211;52.768;12.124;2023-04-01T06:28:14;9.10;99.90
64012;DHT22;50211;52.768;12.124;2023-04-01T06:38:52;9.20;99.90
64012;DHT22;50211;52.768;12.124;2023-04-01T06:44:17;9.40;99.90
64012;DHT22;50211;52.768;12.124;2023-04-01T06:54:52;9.60;99.90
64012;DHT22;50211;52.768;12.124;2023-04-01T06:57:34;9.70;99.90
64012;DHT22;50211;52.768;12.124;2023-04-01T07:00:04;9.80;99.90
64012;DHT22;50211;52.768;12.124;2023-04-01T07:02:50;9.90;99.90
64012;DHT22;50211;52.768;12.124;2023-04-01T07:05:21;10.00;99.90
64012;DHT22;50211;52.768;12.124;2023-04-01T07:07:50;10.10;99.90
64012;DHT22;50211;52.768;12.124;2023-04-01T07:10:41;10.20;99.90
64012;DHT22;50211;52.768;12.124;2023-04-01T07:13:15;10.20;99.90
64012;DHT22;50211;52.768;12.124;2023-04-01T07:15:45;10.30;99.90
64012;DHT22;50211;52.768;12.124;2023-04-01T07:18:16;10.40;99.90
64012;DHT22;50211;52.768;12.124;2023-04-01T07:20:43;10.40;99.90
64012;DHT22;50211;52.768;12.124;2023-04-01T07:23:22;10.40;99.90
64012;DHT22;50211;52.768;12.124;2023-04-01T07:25:53;10.40;99.90
64012;DHT22;50211;52.768;12.124;2023-04-01T07:28:20;10.30;99.90
64012;DHT22;50211;52.768;12.124;2023-04-01T07:36:28;10.30;99.90
64012;DHT22;50211;52.768;12.124;2023-04-01T07:39:06;10.20;99.90
64012;DHT22;50211;52.768;12.124;2023-04-01T07:47:14;10.20;99.90
64012;DHT22;50211;52.768;12.124;2023-04-01T07:52:25;9.90;99.90
64012;DHT22;50211;52.768;12.124;2023-04-01T07:55:05;9.60;99.90
64012;DHT22;50211;52.768;12.124;2023-04-01T07:57:48;9.30;99.90
64012;DHT22;50211;52.768;12.124;2023-04-01T08:00:22;9.00;99.90
64012;DHT22;50211;52.768;12.124;2023-04-01T08:03:14;8.90;99.90
64012;DHT22;50211;52.768;12.124;2023-04-01T08:05:55;8.90;99.90
64012;DHT22;50211;52.768;12.124;2023-04-01T08:08:39;8.80;99.90
64012;DHT22;50211;52.768;12.124;2023-04-01T08:14:21;8.60;99.90
64012;DHT22;50211;52.768;12.124;2023-04-01T08:17:02;8.50;99.90
64012;DHT22;50211;52.768;12.124;2023-04-01T08:22:43;8.50;99.90
64012;DHT22;50211;52.768;12.124;2023-04-01T08:25:20;8.50;99.90
64012;DHT22;50211;52.768;12.124;2023-04-01T08:31:04;8.50;99.90
64012;DHT22;50211;52.768;12.124;2023-04-01T08:33:32;8.50;99.90
64012;DHT22;50211;52.768;12.124;2023-04-01T08:38:38;8.40;99.90
64012;DHT22;50211;52.768;12.124;2023-04-01T08:43:51;8.40;99.90
64012;DHT22;50211;52.768;12.124;2023-04-01T08:46:54;8.40;99.90
64012;DHT22;50211;52.768;12.124;2023-04-01T08:52:07;8.40;99.90
64012;DHT22;50211;52.768;12.124;2023-04-01T08:54:44;8.40;99.90
64012;DHT22;50211;52.768;12.124;2023-04-01T08:57:35;8.30;99.90
64012;DHT22;50211;52.768;12.124;2023-04-01T09:00:20;8.30;99.90
64012;DHT22;50211;52.768;12.124;2023-04-01T09:14:10;8.20;99.90
64012;DHT22;50211;52.768;12.124;2023-04-01T09:17:08;8.30;99.90
64012;DHT22;50211;52.768;12.124;2023-04-01T09:19:51;8.30;99.90
64012;DHT22;50211;52.768;12.124;2023-04-01T09:22:35;8.40;99.90
64012;DHT22;50211;52.768;12.124;2023-04-01T09:28:20;8.40;99.90
64012;DHT22;50211;52.768;12.124;2023-04-01T09:33:52;8.40;99.90
64012;DHT22;50211;52.768;12.124;2023-04-01T09:36:35;8.50;99.90
64012;DHT22;50211;52.768;12.124;2023-04-01T09:44:37;8.40;99.90
64012;DHT22;50211;52.768;12.124;2023-04-01T09:53:20;8.30;99.90
64012;DHT22;50211;52.768;12.124;2023-04-01T10:07:35;8.00;99.90
64012;DHT22;50211;52.768;12.124;2023-04-01T10:10:26;8.10;99.90
64012;DHT22;50211;52.768;12.124;2023-04-01T10:13:08;8.10;99.90
64012;DHT22;50211;52.768;12.124;2023-04-01T10:24:26;8.20;99.90
64012;DHT22;50211;52.768;12.124;2023-04-01T11:17:36;8.50;99.90
64012;DHT22;50211;52.768;12.124;2023-04-01T11:28:51;8.20;99.90
64012;DHT22;50211;52.768;12.124;2023-04-01T11:34:14;8.20;99.90
64012;DHT22;50211;52.768;12.124;2023-04-01T11:44:28;8.20;99.90
64012;DHT22;50211;52.768;12.124;2023-04-01T11:49:59;8.20;99.90
64012;DHT22;50211;52.768;12.124;2023-04-01T11:55:19;8.30;99.90
64012;DHT22;50211;52.768;12.124;2023-04-01T11:58:27;8.40;99.90
64012;DHT22;50211;52.768;12.124;2023-04-01T12:01:13;8.40;99.90
64012;DHT22;50211;52.768;12.124;2023-04-01T12:09:59;8.40;99.90
64012;DHT22;50211;52.768;12.124;2023-04-01T12:15:38;8.20;99.90
64012;DHT22;50211;52.768;12.124;2023-04-01T12:27:20;8.20;99.90
64012;DHT22;50211;52.768;12.124;2023-04-01T12:32:44;8.10;99.90
64012;DHT22;50211;52.768;12.124;2023-04-01T12:41:14;8.00;99.90
64012;DHT22;50211;52.768;12.124;2023-04-01T12:49:33;7.90;99.90
64012;DHT22;50211;52.768;12.124;2023-04-01T12:55:00;7.90;99.90
64012;DHT22;50211;52.768;12.124;2023-04-01T13:03:09;7.90;99.90
64012;DHT22;50211;52.768;12.124;2023-04-01T13:14:27;7.80;99.90
64012;DHT22;50211;52.768;12.124;2023-04-01T13:17:15;7.80;99.90
64012;DHT22;50211;52.768;12.124;2023-04-01T13:20:02;7.80;99.90
64012;DHT22;50211;52.768;12.124;2023-04-01T13:22:50;7.80;99.90
64012;DHT22;50211;52.768;12.124;2023-04-01T13:25:32;7.70;99.90
64012;DHT22;50211;52.768;12.124;2023-04-01T13:28:29;7.70;99.90
64012;DHT22;50211;52.768;12.124;2023-04-01T13:36:41;7.70;99.90
64012;DHT22;50211;52.768;12.124;2023-04-01T13:39:34;7.80;99.90
64012;DHT22;50211;52.768;12.124;2023-04-01T13:42:25;7.70;99.90
64012;DHT22;50211;52.768;12.124;2023-04-01T13:45:21;7.70;99.90
64012;DHT22;50211;52.768;12.124;2023-04-01T13:48:22;7.70;99.90
64012;DHT22;50211;52.768;12.124;2023-04-01T13:56:34;7.60;99.90
64012;DHT22;50211;52.768;12.124;2023-04-01T14:01:41;7.60;99.90
64012;DHT22;50211;52.768;12.124;2023-04-01T14:09:36;7.50;99.90
64012;DHT22;50211;52.768;12.124;2023-04-01T14:12:14;7.50;99.90
64012;DHT22;50211;52.768;12.124;2023-04-01T14:20:27;7.40;99.90
64012;DHT22;50211;52.768;12.124;2023-04-01T14:23:21;7.40;99.90
64012;DHT22;50211;52.768;12.124;2023-04-01T14:32:02;7.30;99.90
64012;DHT22;50211;52.768;12.124;2023-04-01T14:34:39;7.30;99.90
64012;DHT22;50211;52.768;12.124;2023-04-01T14:40:26;7.20;99.90
64012;DHT22;50211;52.768;12.124;2023-04-01T14:43:03;7.10;99.90
64012;DHT22;50211;52.768;12.124;2023-04-01T14:48:36;6.90;99.90
64012;DHT22;50211;52.768;12.124;2023-04-01T14:51:50;6.90;99.90
64012;DHT22;50211;52.768;12.124;2023-04-01T14:56:44;6.90;99.90
64012;DHT22;50211;52.768;12.124;2023-04-01T15:01:53;6.90;99.90
64012;DHT22;50211;52.768;12.124;2023-04-01T15:27:23;6.60;99.90
64012;DHT22;50211;52.768;12.124;2023-04-01T15:38:31;6.60;99.90
64012;DHT22;50211;52.768;12.124;2023-04-01T15:43:46;6.60;99.90
64012;DHT22;50211;52.768;12.124;2023-04-01T15:46:43;6.60;99.90
64012;DHT22;50211;52.768;12.124;2023-04-01T16:00:57;6.40;99.90
64012;DHT22;50211;52.768;12.124;2023-04-01T16:03:43;6.50;99.90
64012;DHT22;50211;52.768;12.124;2023-04-01T16:06:28;6.50;99.90
64012;DHT22;50211;52.768;12.124;2023-04-01T16:20:23;6.30;99.90
64012;DHT22;50211;52.768;12.124;2023-04-01T16:23:35;6.20;99.90
64012;DHT22;50211;52.768;12.124;2023-04-01T16:34:32;6.20;99.90
64012;DHT22;50211;52.768;12.124;2023-04-01T16:37:13;6.20;99.90
64012;DHT22;50211;52.768;12.124;2023-04-01T16:42:50;6.10;99.90
64012;DHT22;50211;52.768;12.124;2023-04-01T16:45:35;6.00;99.90
64012;DHT22;50211;52.768;12.124;2023-04-01T16:51:15;5.90;99.90
64012;DHT22;50211;52.768;12.124;2023-04-01T16:53:43;5.90;99.90
64012;DHT22;50211;52.768;12.124;2023-04-01T16:56:16;5.90;99.90
64012;DHT22;50211;52.768;12.124;2023-04-01T17:01:24;5.70;99.90
64012;DHT22;50211;52.768;12.124;2023-04-01T17:03:57;5.70;99.90
64012;DHT22;50211;52.768;12.124;2023-04-01T17:06:45;5.70;99.90
64012;DHT22;50211;52.768;12.124;2023-04-01T17:18:08;5.60;99.90
64012;DHT22;50211;52.768;12.124;2023-04-01T17:26:40;5.50;99.90
64012;DHT22;50211;52.768;12.124;2023-04-01T17:29:23;5.40;99.90
64012;DHT22;50211;52.768;12.124;2023-04-01T17:32:11;5.40;99.90
64012;DHT22;50211;52.768;12.124;2023-04-01T17:35:05;5.40;99.90
64012;DHT22;50211;52.768;12.124;2023-04-01T17:38:05;5.30;99.90
64012;DHT22;50211;52.768;12.124;2023-04-01T17:41:01;5.20;99.90
64012;DHT22;50211;52.768;12.124;2023-04-01T17:43:47;5.20;99.90
64012;DHT22;50211;52.768;12.124;2023-04-01T17:47:21;5.20;99.90
64012;DHT22;50211;52.768;12.124;2023-04-01T17:49:49;5.20;99.90
64012;DHT22;50211;52.768;12.124;2023-04-01T17:52:39;5.20;99.90
64012;DHT22;50211;52.768;12.124;2023-04-01T17:57:56;5.10;99.90
64012;DHT22;50211;52.768;12.124;2023-04-01T18:01:16;5.10;99.90
64012;DHT22;50211;52.768;12.124;2023-04-01T18:06:21;5.00;99.90
64012;DHT22;50211;52.768;12.124;2023-04-01T18:09:00;5.00;99.90
64012;DHT22;50211;52.768;12.124;2023-04-01T18:17:21;4.90;99.90
64012;DHT22;50211;52.768;12.124;2023-04-01T18:22:48;4.90;99.90
64012;DHT22;50211;52.768;12.124;2023-04-01T18:25:32;4.90;99.90
64012;DHT22;50211;52.768;12.124;2023-04-01T18:28:22;4.80;99.90
64012;DHT22;50211;52.768;12.124;2023-04-01T18:31:03;4.80;99.90
64012;DHT22;50211;52.768;12.124;2023-04-01T18:39:19;4.80;99.90
64012;DHT22;50211;52.768;12.124;2023-04-01T18:44:59;4.70;99.90
64012;DHT22;50211;52.768;12.124;2023-04-01T18:52:47;4.70;99.90
64012;DHT22;50211;52.768;12.124;2023-04-01T18:55:22;4.70;99.90
64012;DHT22;50211;52.768;12.124;2023-04-01T18:57:54;4.60;99.90
64012;DHT22;50211;52.768;12.124;2023-04-01T19:00:26;4.60;99.90
64012;DHT22;50211;52.768;12.124;2023-04-01T19:05:39;4.60;99.90
64012;DHT22;50211;52.768;12.124;2023-04-01T19:11:08;4.50;99.90
64012;DHT22;50211;52.768;12.124;2023-04-01T19:14:16;4.50;99.90
64012;DHT22;50211;52.768;12.124;2023-04-01T19:19:37;4.40;99.90
64012;DHT22;50211;52.768;12.124;2023-04-01T19:25:29;4.40;99.90
64012;DHT22;50211;52.768;12.124;2023-04-01T19:28:20;4.40;99.90
64012;DHT22;50211;52.768;12.124;2023-04-01T19:31:01;4.40;99.90
64012;DHT22;50211;52.768;12.124;2023-04-01T19:39:06;4.40;99.90
64012;DHT22;50211;52.768;12.124;2023-04-01T19:41:56;4.30;99.90
64012;DHT22;50211;52.768;12.124;2023-04-01T19:47:09;4.30;99.90
64012;DHT22;50211;52.768;12.124;2023-04-01T19:52:23;4.30;99.90
64012;DHT22;50211;52.768;12.124;2023-04-01T19:55:18;4.20;99.90
64012;DHT22;50211;52.768;12.124;2023-04-01T19:58:00;4.20;99.90
64012;DHT22;50211;52.768;12.124;2023-04-01T20:00:44;4.30;99.90
64012;DHT22;50211;52.768;12.124;2023-04-01T20:14:53;4.20;99.90
64012;DHT22;50211;52.768;12.124;2023-04-01T20:17:30;4.10;99.90
64012;DHT22;50211;52.768;12.124;2023-04-01T20:20:18;4.10;99.90
64012;DHT22;50211;52.768;12.124;2023-04-01T20:45:15;4.00;99.90
64012;DHT22;50211;52.768;12.124;2023-04-01T20:47:56;4.00;99.90
64012;DHT22;50211;52.768;12.124;2023-04-01T20:58:48;3.80;99.90
64012;DHT22;50211;52.768;12.124;2023-04-01T21:04:14;3.70;99.90
64012;DHT22;50211;52.768;12.124;2023-04-01T21:09:41;3.60;99.90
64012;DHT22;50211;52.768;12.124;2023-04-01T21:12:55;3.60;99.90
64012;DHT22;50211;52.768;12.124;2023-04-01T21:21:46;3.60;99.90
64012;DHT22;50211;52.768;12.124;2023-04-01T21:27:07;3.50;99.90
64012;DHT22;50211;52.768;12.124;2023-04-01T21:32:29;3.50;99.90
64012;DHT22;50211;52.768;12.124;2023-04-01T21:38:03;3.40;99.90
64012;DHT22;50211;52.768;12.124;2023-04-01T21:52:09;3.50;99.90
64012;DHT22;50211;52.768;12.124;2023-04-01T22:00:37;3.40;99.90
64012;DHT22;50211;52.768;12.124;2023-04-01T22:09:03;3.40;99.90
64012;DHT22;50211;52.768;12.124;2023-04-01T22:11:46;3.40;99.90
64012;DHT22;50211;52.768;12.124;2023-04-01T22:14:28;3.30;99.90
64012;DHT22;50211;52.768;12.124;2023-04-01T22:16:58;3.30;99.90
64012;DHT22;50211;52.768;12.124;2023-04-01T22:19:50;3.30;99.90
64012;DHT22;50211;52.768;12.124;2023-04-01T22:22:22;3.30;99.90
64012;DHT22;50211;52.768;12.124;2023-04-01T22:25:16;3.30;99.90
64012;DHT22;50211;52.768;12.124;2023-04-01T22:28:13;3.30;99.90
64012;DHT22;50211;52.768;12.124;2023-04-01T22:30:51;3.20;99.90
64012;DHT22;50211;52.768;12.124;2023-04-01T22:39:14;3.30;99.90
64012;DHT22;50211;52.768;12.124;2023-04-01T22:47:28;3.30;99.90
64012;DHT22;50211;52.768;12.124;2023-04-01T22:50:14;3.30;99.90
64012;DHT22;50211;52.768;12.124;2023-04-01T22:52:45;3.30;99.90
64012;DHT22;50211;52.768;12.124;2023-04-01T22:55:28;3.20;99.90
64012;DHT22;50211;52.768;12.124;2023-04-01T22:58:25;3.20;99.90
64012;DHT22;50211;52.768;12.124;2023-04-01T23:00:55;3.20;99.90
64012;DHT22;50211;52.768;12.124;2023-04-01T23:03:30;3.20;99.90
64012;DHT22;50211;52.768;12.124;2023-04-01T23:06:02;3.10;99.90
64012;DHT22;50211;52.768;12.124;2023-04-01T23:08:55;3.20;99.90
64012;DHT22;50211;52.768;12.124;2023-04-01T23:11:28;3.20;99.90
64012;DHT22;50211;52.768;12.124;2023-04-01T23:17:01;3.20;99.90
64012;DHT22;50211;52.768;12.124;2023-04-01T23:28:40;3.20;99.90
64012;DHT22;50211;52.768;12.124;2023-04-01T23:31:26;3.10;99.90
64012;DHT22;50211;52.768;12.124;2023-04-01T23:37:02;3.20;99.90
64012;DHT22;50211;52.768;12.124;2023-04-01T23:39:32;3.20;99.90
64012;DHT22;50211;52.768;12.124;2023-04-01T23:42:13;3.20;99.90
64012;DHT22;50211;52.768;12.124;2023-04-01T23:44:40;3.20;99.90
64012;DHT22;50211;52.768;12.124;2023-04-01T23:47:08;3.20;99.90
64012;DHT22;50211;52.768;12.124;2023-04-01T23:50:15;3.20;99.90
64012;DHT22;50211;52.768;12.124;2023-04-01T23:52:52;3.20;99.90
64012;DHT22;50211;52.768;12.124;2023-04-01T23:55:27;3.20;99.90
